Time;durP1;ratioP1;P1;durP2;ratioP2;P2;SDS_P1;SDS_P2;PMS_P1;PMS_P2;Temp;Humidity;BMP_temperature;BMP_pressure;BME280_temperature;BME280_humidity;BME280_pressure;Samples;Min_cycle;Max_cycle;Signal;HPM_P1;HPM_P2
2022/05/06 00:02:05;;;;;;;7.53;6.38;;;9.60;99.90;;;;;;4969211;28;20094;-61
2022/05/06 00:04:31;;;;;;;7.38;6.50;;;9.50;99.90;;;;;;4969685;28;20027;-61
2022/05/06 00:06:57;;;;;;;7.50;6.40;;;9.30;99.90;;;;;;4969706;28;20054;-61
2022/05/06 00:09:23;;;;;;;7.30;6.40;;;9.20;99.90;;;;;;4970837;28;20440;-61
2022/05/06 00:11:50;;;;;;;7.45;6.75;;;9.10;99.90;;;;;;4970782;28;20019;-61
2022/05/06 00:14:16;;;;;;;9.23;6.93;;;9.00;99.90;;;;;;4959673;28;20081;-61
2022/05/06 00:16:41;;;;;;;8.13;6.95;;;8.90;99.90;;;;;;4969142;28;20114;-62
2022/05/06 00:19:07;;;;;;;7.78;6.97;;;8.90;99.90;;;;;;4944636;28;20027;-61
2022/05/06 00:21:32;;;;;;;8.20;7.43;;;8.80;99.90;;;;;;4969966;28;20027;-61
2022/05/06 00:23:58;;;;;;;10.50;9.10;;;8.80;99.90;;;;;;4968812;28;20074;-61
2022/05/06 00:26:24;;;;;;;9.43;8.45;;;8.80;99.90;;;;;;4969971;28;20034;-61
2022/05/06 00:28:49;;;;;;;11.55;8.30;;;8.70;99.90;;;;;;4968331;28;20023;-61
2022/05/06 00:31:15;;;;;;;13.30;8.20;;;8.70;99.90;;;;;;4969931;28;20474;-61
2022/05/06 00:33:40;;;;;;;7.70;7.00;;;8.70;99.90;;;;;;4969468;28;20759;-61
2022/05/06 00:36:07;;;;;;;8.38;7.15;;;8.60;99.90;;;;;;4969978;28;20027;-61
2022/05/06 00:38:33;;;;;;;11.32;7.45;;;8.40;99.90;;;;;;4970031;28;20153;-61
2022/05/06 00:40:58;;;;;;;8.32;7.53;;;8.30;99.90;;;;;;4969280;28;20050;-61
2022/05/06 00:43:27;;;;;;;14.40;9.25;;;8.30;99.90;;;;;;4969782;28;20039;-61
2022/05/06 00:45:57;;;;;;;9.07;8.27;;;8.20;99.90;;;;;;4969287;28;20395;-61
2022/05/06 00:48:32;;;;;;;10.52;9.60;;;8.20;99.90;;;;;;4969072;28;20029;-61
2022/05/06 00:50:59;;;;;;;13.80;10.20;;;8.20;99.90;;;;;;4969621;28;20030;-61
2022/05/06 00:53:25;;;;;;;13.25;10.15;;;8.20;99.90;;;;;;4969338;28;20035;-61
2022/05/06 00:55:52;;;;;;;13.27;10.75;;;8.20;99.90;;;;;;4951058;28;20116;-61
2022/05/06 00:58:19;;;;;;;9.45;8.55;;;8.20;99.90;;;;;;4968939;28;20063;-62
2022/05/06 01:00:45;;;;;;;15.80;9.13;;;8.20;99.90;;;;;;4969097;28;20027;-62
2022/05/06 01:03:11;;;;;;;11.20;8.63;;;8.10;99.90;;;;;;4967776;28;20027;-61
2022/05/06 01:05:39;;;;;;;8.57;7.50;;;8.10;99.90;;;;;;4968672;28;20078;-61
2022/05/06 01:08:05;;;;;;;8.75;7.57;;;8.00;99.90;;;;;;4969109;28;20037;-62
2022/05/06 01:10:31;;;;;;;11.70;9.05;;;8.00;99.90;;;;;;4969551;28;20043;-61
2022/05/06 01:12:57;;;;;;;12.45;8.30;;;7.90;99.90;;;;;;4968066;28;20018;-61
2022/05/06 01:15:24;;;;;;;11.63;9.73;;;7.90;99.90;;;;;;4968676;28;20107;-61
2022/05/06 01:17:52;;;;;;;10.48;8.65;;;7.80;99.90;;;;;;4968504;28;20055;-61
2022/05/06 01:20:19;;;;;;;12.32;9.77;;;7.80;99.90;;;;;;4969415;28;20027;-61
2022/05/06 01:22:47;;;;;;;9.75;8.63;;;7.80;99.90;;;;;;4967221;28;20042;-61
2022/05/06 01:25:13;;;;;;;10.40;9.10;;;7.80;99.90;;;;;;4968522;28;20110;-61
2022/05/06 01:27:45;;;;;;;13.30;10.20;;;7.80;99.90;;;;;;4968783;28;20031;-61
2022/05/06 01:30:36;;;;;;;9.75;8.57;;;7.80;99.90;;;;;;4968895;28;20027;-61
2022/05/06 01:33:11;;;;;;;10.63;8.75;;;7.80;99.90;;;;;;4969720;28;20447;-61
2022/05/06 01:35:50;;;;;;;20.08;9.07;;;7.80;99.90;;;;;;4968137;28;20055;-61
2022/05/06 01:38:23;;;;;;;8.50;7.80;;;7.80;99.90;;;;;;4968246;28;20027;-61
2022/05/06 01:41:03;;;;;;;8.95;8.15;;;7.80;99.90;;;;;;4967853;28;20499;-62
2022/05/06 01:43:38;;;;;;;16.23;8.20;;;7.80;99.90;;;;;;4968291;28;20528;-62
2022/05/06 01:46:06;;;;;;;10.73;9.75;;;7.80;99.90;;;;;;4968755;28;20422;-62
2022/05/06 01:48:34;;;;;;;9.70;8.70;;;7.80;99.90;;;;;;4968655;28;20038;-61
2022/05/06 01:51:01;;;;;;;9.68;8.80;;;7.90;99.90;;;;;;4969439;28;20048;-61
2022/05/06 01:53:27;;;;;;;12.60;9.98;;;7.90;99.90;;;;;;4966946;28;20566;-61
2022/05/06 01:55:52;;;;;;;8.57;7.88;;;7.90;99.90;;;;;;4968682;28;20034;-61
2022/05/06 01:58:18;;;;;;;11.48;8.88;;;7.90;99.90;;;;;;4968001;28;20508;-61
2022/05/06 02:00:44;;;;;;;10.35;9.38;;;7.90;99.90;;;;;;4968357;28;20023;-61
2022/05/06 02:05:16;;;;;;;15.02;9.63;;;7.90;99.90;;;;;;4968590;28;20397;-61
2022/05/06 02:05:55;;;;;;;8.57;7.88;;;7.90;99.90;;;;;;4968890;28;20035;-61
2022/05/06 02:08:20;;;;;;;9.30;8.40;;;7.90;99.90;;;;;;4958500;28;20125;-61
2022/05/06 02:10:46;;;;;;;9.23;8.43;;;7.90;99.90;;;;;;4967662;28;20459;-61
2022/05/06 02:13:11;;;;;;;9.65;8.75;;;7.90;99.90;;;;;;4968040;28;20550;-61
2022/05/06 02:15:38;;;;;;;11.50;9.23;;;7.80;99.90;;;;;;4967348;28;20030;-60
2022/05/06 02:18:04;;;;;;;8.10;7.40;;;7.80;99.90;;;;;;4969299;28;20109;-61
2022/05/06 02:20:30;;;;;;;8.10;7.45;;;7.80;99.90;;;;;;4967174;28;20073;-61
2022/05/06 02:22:55;;;;;;;9.35;8.07;;;7.80;99.90;;;;;;4968053;28;20050;-60
2022/05/06 02:25:21;;;;;;;13.23;9.15;;;7.80;99.90;;;;;;4967457;28;20035;-60
2022/05/06 02:27:47;;;;;;;8.82;8.15;;;7.70;99.90;;;;;;4967536;28;20031;-62
2022/05/06 02:33:15;;;;;;;9.30;8.35;;;7.60;99.90;;;;;;4968069;28;20505;-61
2022/05/06 02:35:43;;;;;;;10.35;9.45;;;7.60;99.90;;;;;;4945970;28;20113;-61
2022/05/06 02:38:10;;;;;;;8.98;8.07;;;7.50;99.90;;;;;;4969420;28;20031;-61
2022/05/06 02:40:37;;;;;;;11.52;9.27;;;7.50;99.90;;;;;;4971905;28;20027;-61
2022/05/06 02:43:04;;;;;;;10.93;9.93;;;7.50;99.90;;;;;;4970795;28;20030;-61
2022/05/06 02:45:30;;;;;;;9.85;8.95;;;7.40;99.90;;;;;;4954252;28;20142;-61
2022/05/06 02:47:57;;;;;;;9.68;8.82;;;7.30;99.90;;;;;;4971923;28;20041;-61
2022/05/06 02:50:24;;;;;;;10.85;8.90;;;7.20;99.90;;;;;;4972091;28;20023;-61
2022/05/06 02:52:50;;;;;;;10.18;8.65;;;7.20;99.90;;;;;;4971804;28;20023;-61
2022/05/06 02:55:16;;;;;;;8.57;7.88;;;7.10;99.90;;;;;;4971108;28;20045;-61
2022/05/06 02:57:42;;;;;;;9.43;7.60;;;7.10;99.90;;;;;;4971689;28;20053;-61
2022/05/06 03:00:08;;;;;;;9.43;8.02;;;7.10;99.90;;;;;;4971949;28;20057;-61
2022/05/06 03:02:34;;;;;;;10.13;8.73;;;7.00;99.90;;;;;;4971897;28;20027;-62
2022/05/06 03:05:00;;;;;;;9.90;8.93;;;7.00;99.90;;;;;;4971120;28;20107;-61
2022/05/06 03:07:25;;;;;;;9.70;8.07;;;7.00;99.90;;;;;;4972259;28;20122;-61
2022/05/06 03:09:54;;;;;;;9.55;8.60;;;6.90;99.90;;;;;;4970960;28;20430;-61
2022/05/06 03:12:22;;;;;;;7.88;7.28;;;6.90;99.90;;;;;;4971444;28;20026;-61
2022/05/06 03:14:49;;;;;;;10.48;9.48;;;6.90;99.90;;;;;;4971723;28;20026;-61
2022/05/06 03:17:14;;;;;;;12.32;10.02;;;6.90;99.90;;;;;;4971762;28;20051;-61
2022/05/06 03:19:40;;;;;;;9.45;8.43;;;6.90;99.90;;;;;;4971471;28;20063;-61
2022/05/06 03:22:07;;;;;;;9.77;8.50;;;6.90;99.90;;;;;;4969504;28;20055;-61
2022/05/06 03:24:33;;;;;;;10.00;9.10;;;6.90;99.90;;;;;;4970784;28;20102;-61
2022/05/06 03:26:58;;;;;;;9.07;8.38;;;6.90;99.90;;;;;;4970955;28;20965;-61
2022/05/06 03:29:24;;;;;;;9.38;8.48;;;6.90;99.90;;;;;;4971197;28;20046;-61
2022/05/06 03:31:52;;;;;;;10.27;9.10;;;6.90;99.90;;;;;;4970746;28;20104;-60
2022/05/06 03:34:19;;;;;;;9.38;8.48;;;6.90;99.90;;;;;;4970922;28;20089;-62
2022/05/06 03:36:45;;;;;;;11.93;9.32;;;7.00;99.90;;;;;;4971568;28;20216;-61
2022/05/06 03:39:11;;;;;;;10.45;9.32;;;7.00;99.90;;;;;;4970476;28;20469;-60
2022/05/06 03:41:37;;;;;;;10.88;9.85;;;7.00;99.90;;;;;;4971236;28;20026;-61
2022/05/06 03:44:03;;;;;;;9.18;8.32;;;6.90;99.90;;;;;;4969939;28;20039;-61
2022/05/06 03:46:29;;;;;;;10.18;8.10;;;6.90;99.90;;;;;;4970162;28;20039;-61
2022/05/06 03:48:55;;;;;;;9.57;8.75;;;6.90;99.90;;;;;;4969667;28;20393;-61
2022/05/06 03:51:21;;;;;;;12.80;8.50;;;6.90;99.90;;;;;;4942856;28;20039;-61
2022/05/06 03:53:50;;;;;;;9.85;8.85;;;7.00;99.90;;;;;;4970094;28;20031;-61
2022/05/06 03:56:16;;;;;;;11.77;8.75;;;7.10;99.90;;;;;;4969676;28;20177;-60
2022/05/06 03:58:42;;;;;;;14.27;8.27;;;7.10;99.90;;;;;;4970653;28;20118;-61
2022/05/06 04:01:08;;;;;;;12.35;8.50;;;7.10;99.90;;;;;;4969684;28;20113;-61
2022/05/06 04:03:34;;;;;;;10.60;9.52;;;7.20;99.90;;;;;;4969768;28;20027;-61
2022/05/06 04:05:59;;;;;;;8.40;7.47;;;7.20;99.90;;;;;;4968165;28;20015;-61
2022/05/06 04:08:25;;;;;;;10.63;9.57;;;7.30;99.90;;;;;;4970474;28;20086;-61
2022/05/06 04:10:51;;;;;;;10.35;8.45;;;7.30;99.90;;;;;;4970067;28;20042;-62
2022/05/06 04:13:19;;;;;;;9.15;8.35;;;7.40;99.90;;;;;;4969993;28;20035;-60
2022/05/06 04:15:46;;;;;;;9.80;8.80;;;7.40;99.90;;;;;;4970784;28;20023;-61
2022/05/06 04:18:12;;;;;;;9.70;8.70;;;7.50;99.90;;;;;;4969987;28;20019;-61
2022/05/06 04:23:32;;;;;;;8.35;7.65;;;7.60;99.90;;;;;;4966974;28;20109;-61
2022/05/06 04:26:02;;;;;;;13.15;8.32;;;7.60;99.90;;;;;;4970471;28;20031;-61
2022/05/06 04:28:28;;;;;;;8.30;7.65;;;7.70;99.90;;;;;;4969930;28;20045;-60
2022/05/06 04:30:55;;;;;;;7.82;7.22;;;7.70;99.90;;;;;;4969809;28;20023;-61
2022/05/06 04:33:21;;;;;;;7.20;6.55;;;7.80;99.90;;;;;;4969631;28;20106;-61
2022/05/06 04:35:48;;;;;;;9.15;8.35;;;7.80;99.90;;;;;;4953047;28;20030;-61
2022/05/06 04:38:14;;;;;;;11.00;8.35;;;7.90;99.90;;;;;;4970163;28;20035;-61
2022/05/06 04:40:43;;;;;;;7.70;6.85;;;8.00;99.90;;;;;;4952563;28;20088;-60
2022/05/06 04:43:09;;;;;;;7.82;6.97;;;8.10;99.90;;;;;;4969742;28;20406;-61
2022/05/06 04:45:42;;;;;;;7.97;7.25;;;8.10;99.90;;;;;;4965355;28;20054;-61
2022/05/06 04:48:10;;;;;;;8.43;6.72;;;8.20;99.90;;;;;;4970150;28;20101;-61
2022/05/06 04:50:37;;;;;;;8.93;7.72;;;8.30;99.90;;;;;;4969641;28;20038;-61
2022/05/06 04:53:07;;;;;;;10.18;7.68;;;8.40;99.90;;;;;;4968698;28;20034;-61
2022/05/06 04:55:38;;;;;;;9.63;7.70;;;8.40;99.90;;;;;;4968594;28;20046;-62
2022/05/06 04:58:04;;;;;;;8.02;7.32;;;8.50;99.90;;;;;;4969033;28;20390;-61
2022/05/06 05:00:30;;;;;;;7.63;6.93;;;8.60;99.90;;;;;;4969049;28;20352;-61
2022/05/06 05:02:57;;;;;;;7.15;6.50;;;8.70;99.90;;;;;;4969284;28;20402;-61
2022/05/06 05:05:24;;;;;;;9.27;7.32;;;8.80;99.90;;;;;;4969810;28;20030;-61
2022/05/06 05:07:49;;;;;;;9.85;6.80;;;9.00;99.90;;;;;;4968281;28;20061;-62
2022/05/06 05:10:15;;;;;;;10.27;6.78;;;9.10;99.90;;;;;;4970202;28;20506;-61
2022/05/06 05:12:41;;;;;;;7.22;6.63;;;9.20;99.90;;;;;;4969083;28;20058;-60
2022/05/06 05:15:07;;;;;;;9.73;8.57;;;9.40;99.90;;;;;;4970047;28;20023;-61
2022/05/06 05:17:32;;;;;;;7.45;6.75;;;9.50;99.90;;;;;;4968610;28;20041;-61
2022/05/06 05:19:58;;;;;;;7.30;6.22;;;9.70;99.90;;;;;;4969939;28;20026;-62
2022/05/06 05:22:25;;;;;;;7.40;5.75;;;9.90;99.90;;;;;;4969174;28;20075;-61
2022/05/06 05:24:50;;;;;;;9.45;5.75;;;10.10;99.90;;;;;;4967487;28;20109;-61
2022/05/06 05:27:17;;;;;;;5.90;4.65;;;10.30;99.90;;;;;;4969423;28;20427;-61
2022/05/06 05:29:43;;;;;;;5.88;4.90;;;10.60;99.90;;;;;;4969618;28;20394;-62
2022/05/06 05:32:09;;;;;;;6.30;4.15;;;10.80;99.90;;;;;;4968926;28;20027;-62
2022/05/06 05:34:35;;;;;;;5.78;4.03;;;11.10;99.90;;;;;;4967775;28;20027;-62
2022/05/06 05:37:01;;;;;;;6.05;4.43;;;11.40;99.90;;;;;;4969077;28;20038;-63
2022/05/06 05:39:27;;;;;;;5.75;5.20;;;11.70;99.90;;;;;;4968734;28;20037;-61
2022/05/06 05:41:53;;;;;;;4.97;4.47;;;11.90;99.90;;;;;;4968959;28;20059;-61
2022/05/06 05:49:48;;;;;;;5.43;4.88;;;12.50;99.90;;;;;;4969472;28;20524;-61
2022/05/06 05:52:14;;;;;;;7.07;4.57;;;12.70;99.90;;;;;;4968394;28;20039;-62
2022/05/06 05:54:39;;;;;;;3.97;3.35;;;12.90;99.90;;;;;;4969367;28;20043;-62
2022/05/06 05:57:06;;;;;;;7.85;3.83;;;13.20;99.90;;;;;;4968311;28;20541;-61
2022/05/06 05:59:33;;;;;;;8.38;4.10;;;13.30;99.90;;;;;;4951797;28;20387;-62
2022/05/06 06:02:00;;;;;;;4.63;3.75;;;13.50;99.90;;;;;;4968149;28;20023;-61
2022/05/06 06:04:26;;;;;;;8.80;4.10;;;13.70;99.90;;;;;;4967865;28;20069;-61
2022/05/06 06:06:51;;;;;;;4.07;3.03;;;14.00;99.90;;;;;;4968890;28;20395;-61
2022/05/06 06:09:17;;;;;;;3.83;3.42;;;14.30;99.90;;;;;;4971431;28;20026;-61
2022/05/06 06:11:43;;;;;;;3.75;3.00;;;14.50;99.90;;;;;;4973684;28;20597;-61
2022/05/06 06:14:09;;;;;;;4.38;3.13;;;14.60;99.90;;;;;;4971801;28;20117;-61
2022/05/06 06:16:35;;;;;;;3.10;2.65;;;14.90;99.90;;;;;;4973063;28;20119;-63
2022/05/06 06:19:00;;;;;;;5.68;2.92;;;15.20;99.90;;;;;;4972265;28;20050;-61
2022/05/06 06:21:26;;;;;;;3.53;2.95;;;15.50;99.90;;;;;;4973045;28;20114;-62
2022/05/06 06:23:52;;;;;;;4.93;2.70;;;16.00;99.30;;;;;;4971418;28;20103;-63
2022/05/06 06:26:17;;;;;;;5.82;3.05;;;16.30;97.80;;;;;;4972338;28;20050;-62
2022/05/06 06:28:43;;;;;;;4.85;2.97;;;16.60;96.60;;;;;;4972512;28;20037;-63
2022/05/06 06:31:09;;;;;;;5.30;2.83;;;17.00;94.90;;;;;;4972155;28;20217;-62
2022/05/06 06:33:37;;;;;;;4.60;2.72;;;17.20;95.00;;;;;;4972324;28;20450;-62
2022/05/06 06:36:04;;;;;;;2.40;2.20;;;17.60;91.90;;;;;;4972340;28;20578;-62
2022/05/06 06:38:30;;;;;;;3.22;2.78;;;17.60;88.60;;;;;;4972157;28;20062;-61
2022/05/06 06:40:56;;;;;;;3.85;2.55;;;17.60;90.50;;;;;;4971501;28;20058;-63
2022/05/06 06:43:21;;;;;;;4.00;3.00;;;17.90;88.90;;;;;;4971915;28;20027;-61
2022/05/06 06:45:47;;;;;;;3.65;2.70;;;17.90;90.60;;;;;;4972508;28;20531;-62
2022/05/06 06:48:13;;;;;;;4.60;2.40;;;17.90;88.90;;;;;;4968662;28;20030;-62
2022/05/06 06:50:41;;;;;;;4.43;2.45;;;17.90;84.70;;;;;;4971029;28;20023;-63
2022/05/06 06:53:07;;;;;;;3.17;2.30;;;18.40;84.20;;;;;;4969619;28;20023;-62
2022/05/06 06:55:32;;;;;;;4.60;2.53;;;18.70;78.40;;;;;;4971604;28;20038;-63
2022/05/06 06:57:58;;;;;;;3.28;2.97;;;18.70;74.90;;;;;;4970550;28;20038;-61
2022/05/06 07:00:26;;;;;;;3.35;3.05;;;18.70;76.40;;;;;;4971991;28;20027;-62
2022/05/06 07:02:53;;;;;;;3.08;2.30;;;18.80;80.80;;;;;;4971464;28;20043;-64
2022/05/06 07:05:18;;;;;;;5.55;2.70;;;19.30;77.30;;;;;;4971391;28;20562;-61
2022/05/06 07:11:52;;;;;;;5.70;3.50;;;20.20;72.50;;;;;;4969898;28;20078;-62
2022/05/06 07:13:23;;;;;;;6.28;4.38;;;20.90;68.60;;;;;;4970372;28;20030;-62
2022/05/06 07:15:49;;;;;;;6.70;3.65;;;22.10;62.20;;;;;;4970477;28;20027;-62
2022/05/06 07:18:14;;;;;;;7.88;3.55;;;22.70;59.30;;;;;;4971084;28;20031;-62
2022/05/06 07:20:42;;;;;;;6.15;3.88;;;23.50;58.10;;;;;;4970538;28;20030;-63
2022/05/06 07:23:07;;;;;;;4.30;2.60;;;23.90;55.10;;;;;;4970216;28;20506;-63
2022/05/06 07:25:33;;;;;;;2.80;2.08;;;24.30;55.10;;;;;;4970668;28;20039;-62
2022/05/06 07:27:59;;;;;;;5.03;3.28;;;24.80;52.90;;;;;;4971098;28;20486;-63
2022/05/06 07:30:25;;;;;;;3.42;2.40;;;25.20;50.30;;;;;;4970992;28;20053;-63
2022/05/06 07:32:51;;;;;;;3.88;2.22;;;24.90;49.20;;;;;;4970866;28;20015;-63
2022/05/06 07:35:16;;;;;;;5.78;3.28;;;25.10;50.20;;;;;;4971747;28;20569;-64
2022/05/06 07:37:42;;;;;;;2.95;1.83;;;25.90;47.70;;;;;;4969759;28;20142;-63
2022/05/06 07:40:11;;;;;;;5.35;1.50;;;26.10;45.70;;;;;;4970760;28;20049;-63
2022/05/06 07:42:38;;;;;;;3.33;1.52;;;26.60;48.70;;;;;;4969902;28;20435;-64
2022/05/06 07:45:04;;;;;;;4.25;1.58;;;27.50;44.30;;;;;;4971489;28;20023;-65
2022/05/06 07:47:30;;;;;;;2.33;1.20;;;28.10;44.30;;;;;;4970946;28;20035;-63
2022/05/06 07:49:56;;;;;;;3.85;1.50;;;28.30;42.50;;;;;;4970631;28;20030;-63
2022/05/06 07:52:22;;;;;;;5.40;1.48;;;28.50;40.90;;;;;;4971035;28;20030;-63
2022/05/06 07:54:47;;;;;;;1.35;1.13;;;28.50;38.00;;;;;;4969755;28;20050;-64
2022/05/06 07:57:13;;;;;;;2.63;1.25;;;28.30;39.20;;;;;;4970869;28;20054;-63
2022/05/06 07:59:39;;;;;;;3.72;1.35;;;28.30;42.30;;;;;;4970689;28;20023;-63
2022/05/06 08:04:49;;;;;;;3.13;1.52;;;28.20;39.20;;;;;;4969582;28;20028;-63
2022/05/06 08:07:16;;;;;;;3.28;1.00;;;28.40;40.60;;;;;;4970566;28;20027;-63
2022/05/06 08:09:42;;;;;;;5.38;0.95;;;28.90;40.80;;;;;;4970491;28;20464;-62
2022/05/06 08:12:09;;;;;;;6.30;1.30;;;28.90;40.90;;;;;;4970574;28;20034;-63
2022/05/06 08:14:35;;;;;;;2.35;1.10;;;28.60;40.20;;;;;;4969632;28;20498;-62
2022/05/06 08:17:01;;;;;;;2.90;1.17;;;28.20;40.70;;;;;;4969952;28;20045;-65
2022/05/06 08:19:27;;;;;;;2.85;0.98;;;28.30;41.50;;;;;;4970214;28;20550;-63
2022/05/06 08:21:53;;;;;;;2.88;1.20;;;27.90;41.10;;;;;;4970013;28;20133;-62
2022/05/06 08:24:20;;;;;;;1.40;0.90;;;27.90;41.00;;;;;;4968212;28;20034;-63
2022/05/06 08:26:46;;;;;;;2.35;1.30;;;28.10;41.60;;;;;;4970425;28;20030;-63
2022/05/06 08:29:12;;;;;;;2.00;1.02;;;28.30;40.20;;;;;;4969168;28;20451;-63
2022/05/06 08:31:38;;;;;;;2.60;1.10;;;27.60;37.90;;;;;;4969247;28;20030;-63
2022/05/06 08:34:08;;;;;;;4.30;1.00;;;27.90;41.30;;;;;;4969407;28;20023;-62
2022/05/06 08:36:36;;;;;;;1.55;1.13;;;28.20;40.60;;;;;;4969822;28;20027;-63
2022/05/06 08:39:05;;;;;;;3.90;1.00;;;28.50;41.10;;;;;;4970480;28;20082;-63
2022/05/06 08:41:32;;;;;;;3.38;1.10;;;28.60;39.10;;;;;;4968868;28;20050;-65
2022/05/06 08:43:58;;;;;;;3.03;1.00;;;28.50;38.70;;;;;;4968920;28;20031;-65
2022/05/06 08:51:59;;;;;;;2.67;0.90;;;28.30;38.10;;;;;;4968907;28;21508;-63
2022/05/06 08:54:25;;;;;;;4.25;1.10;;;28.30;39.70;;;;;;4969189;28;20505;-63
2022/05/06 08:56:52;;;;;;;3.60;0.90;;;28.90;41.10;;;;;;4970060;28;20062;-63
2022/05/06 08:59:18;;;;;;;5.05;1.42;;;29.70;40.00;;;;;;4969963;28;20027;-63
2022/05/06 09:01:43;;;;;;;3.00;1.33;;;29.80;38.30;;;;;;4969645;28;20094;-63
2022/05/06 09:04:09;;;;;;;2.58;1.10;;;29.00;36.60;;;;;;4968453;28;20487;-63
2022/05/06 09:06:35;;;;;;;2.70;0.90;;;28.20;37.90;;;;;;4969300;28;20046;-64
2022/05/06 09:09:01;;;;;;;1.70;0.90;;;28.50;39.50;;;;;;4969557;28;20031;-66
2022/05/06 09:16:39;;;;;;;2.15;0.95;;;28.30;39.60;;;;;;4968714;28;20106;-63
2022/05/06 09:17:19;;;;;;;6.22;1.33;;;29.10;42.00;;;;;;4968961;28;20110;-63
2022/05/06 09:19:45;;;;;;;2.95;1.00;;;29.80;39.40;;;;;;4969191;28;20023;-65
2022/05/06 09:22:11;;;;;;;9.23;1.10;;;29.90;38.00;;;;;;4968332;28;20491;-64
2022/05/06 09:24:38;;;;;;;3.25;0.80;;;29.80;38.50;;;;;;4967660;28;20031;-65
2022/05/06 09:27:12;;;;;;;3.42;1.10;;;29.60;37.80;;;;;;4969297;28;20022;-64
2022/05/06 09:29:42;;;;;;;4.20;1.05;;;29.90;38.90;;;;;;4939876;28;20042;-64
2022/05/06 09:32:17;;;;;;;3.58;1.30;;;30.40;37.80;;;;;;4969161;28;20081;-64
2022/05/06 09:34:44;;;;;;;3.47;0.90;;;30.70;38.40;;;;;;4969077;28;20027;-64
2022/05/06 09:37:10;;;;;;;2.65;0.90;;;30.30;39.00;;;;;;4969026;28;20114;-66
2022/05/06 09:39:39;;;;;;;3.15;1.20;;;30.20;38.50;;;;;;4968379;28;20139;-64
2022/05/06 09:42:06;;;;;;;2.13;0.88;;;30.10;36.70;;;;;;4950327;28;20028;-63
2022/05/06 09:44:35;;;;;;;2.83;1.00;;;30.00;39.60;;;;;;4972733;28;20047;-64
2022/05/06 09:47:12;;;;;;;2.92;1.02;;;29.90;41.10;;;;;;4958030;28;20039;-64
2022/05/06 09:49:39;;;;;;;8.68;2.92;;;29.40;38.00;;;;;;4969901;28;20126;-64
2022/05/06 09:52:15;;;;;;;5.25;0.90;;;29.80;40.50;;;;;;4972965;28;20486;-65
2022/05/06 09:54:42;;;;;;;3.75;1.33;;;29.60;39.20;;;;;;4971330;28;20142;-66
2022/05/06 09:57:10;;;;;;;5.10;1.30;;;29.40;40.50;;;;;;4971559;28;20030;-64
2022/05/06 09:59:36;;;;;;;13.45;5.85;;;29.30;40.60;;;;;;4972887;28;20026;-64
2022/05/06 10:02:03;;;;;;;3.10;0.98;;;29.00;39.70;;;;;;4972548;28;20035;-64
2022/05/06 10:04:29;;;;;;;2.63;1.05;;;29.10;40.60;;;;;;4972648;28;20031;-64
2022/05/06 10:06:58;;;;;;;1.48;0.82;;;28.60;37.00;;;;;;4972020;28;20085;-63
2022/05/06 10:09:25;;;;;;;2.20;0.95;;;25.70;38.50;;;;;;4973191;28;20048;-63
2022/05/06 10:11:52;;;;;;;3.78;0.95;;;23.30;45.50;;;;;;4972301;28;20027;-63
2022/05/06 10:14:19;;;;;;;2.58;0.95;;;22.40;46.10;;;;;;4972545;28;20368;-63
2022/05/06 10:16:45;;;;;;;1.48;1.10;;;21.70;46.90;;;;;;4972545;28;20038;-63
2022/05/06 10:19:36;;;;;;;4.93;1.52;;;21.30;49.70;;;;;;4972122;28;20023;-63
2022/05/06 10:22:03;;;;;;;1.98;0.98;;;21.00;51.80;;;;;;4935095;28;20035;-63
2022/05/06 10:24:41;;;;;;;2.63;1.25;;;20.90;50.40;;;;;;4970224;28;20129;-63
2022/05/06 10:33:16;;;;;;;3.20;1.40;;;21.40;51.20;;;;;;4972559;28;20390;-63
2022/05/06 10:35:46;;;;;;;2.03;1.20;;;22.30;53.70;;;;;;4972041;28;20035;-63
2022/05/06 10:38:21;;;;;;;3.03;1.40;;;22.10;47.80;;;;;;4971603;28;20039;-63
2022/05/06 10:41:02;;;;;;;3.00;1.10;;;22.60;47.30;;;;;;4970443;28;20117;-63
2022/05/06 10:43:39;;;;;;;;;;;23.30;49.20;;;;;;4972462;28;20035;-64
2022/05/06 10:46:05;;;;;;;2.22;1.25;;;23.40;45.40;;;;;;4971345;28;20333;-63
2022/05/06 10:48:32;;;;;;;2.95;1.40;;;23.30;49.70;;;;;;4971819;28;20042;-64
2022/05/06 10:51:26;;;;;;;2.53;1.25;;;22.50;48.40;;;;;;4972583;28;20076;-63
2022/05/06 10:53:52;;;;;;;1.13;1.02;;;22.50;50.60;;;;;;4919998;28;20059;-63
2022/05/06 10:56:18;;;;;;;1.83;1.35;;;22.90;50.60;;;;;;4971772;28;20031;-63
2022/05/06 10:58:44;;;;;;;2.80;1.40;;;22.60;49.40;;;;;;4971387;28;20398;-65
2022/05/06 11:01:16;;;;;;;4.13;1.35;;;22.40;49.50;;;;;;4971858;28;20033;-62
2022/05/06 11:03:55;;;;;;;4.90;1.20;;;22.50;52.90;;;;;;4969003;28;20063;-62
2022/05/06 11:06:24;;;;;;;2.72;1.33;;;23.30;48.30;;;;;;4972746;28;20019;-63
2022/05/06 11:08:50;;;;;;;1.27;0.93;;;23.00;47.80;;;;;;4970900;28;20069;-62
2022/05/06 11:11:17;;;;;;;2.38;1.20;;;22.40;48.20;;;;;;4971587;28;20622;-63
2022/05/06 11:13:47;;;;;;;1.63;1.20;;;22.00;49.70;;;;;;4954877;28;20030;-64
2022/05/06 11:16:17;;;;;;;3.97;1.38;;;21.60;49.80;;;;;;4971194;28;20023;-63
2022/05/06 11:18:43;;;;;;;3.05;1.40;;;21.30;49.90;;;;;;4970545;28;20034;-63
2022/05/06 11:21:22;;;;;;;2.58;1.10;;;21.60;50.50;;;;;;4971402;28;20026;-62
2022/05/06 11:23:48;;;;;;;2.92;1.10;;;20.80;49.50;;;;;;4969715;28;21571;-62
2022/05/06 11:26:26;;;;;;;2.92;1.30;;;20.70;52.60;;;;;;4970051;28;20102;-62
2022/05/06 11:29:04;;;;;;;2.05;1.13;;;20.70;52.20;;;;;;4970881;28;20394;-62
2022/05/06 11:31:31;;;;;;;2.85;1.30;;;21.00;52.00;;;;;;4970440;28;20367;-62
2022/05/06 11:34:01;;;;;;;2.85;1.05;;;21.20;53.00;;;;;;4970997;28;20037;-63
2022/05/06 11:36:27;;;;;;;4.30;0.93;;;21.20;53.20;;;;;;4970957;28;20383;-65
2022/05/06 11:38:53;;;;;;;4.18;0.80;;;21.80;55.50;;;;;;4972175;28;20145;-63
2022/05/06 11:41:18;;;;;;;2.47;1.00;;;22.50;54.50;;;;;;4971652;28;20360;-62
2022/05/06 11:43:46;;;;;;;1.40;1.02;;;22.90;49.90;;;;;;4970205;28;20508;-65
2022/05/06 11:49:07;;;;;;;2.22;0.90;;;23.80;50.20;;;;;;4970315;28;20105;-62
2022/05/06 11:51:41;;;;;;;2.33;1.00;;;24.20;49.50;;;;;;4971321;28;20030;-62
2022/05/06 11:54:08;;;;;;;1.35;0.90;;;24.40;47.70;;;;;;4970275;28;20066;-62
2022/05/06 11:56:34;;;;;;;2.53;1.10;;;24.60;47.50;;;;;;4971374;28;20038;-62
2022/05/06 11:59:01;;;;;;;3.22;1.00;;;24.60;48.20;;;;;;4970752;28;20118;-62
2022/05/06 12:01:34;;;;;;;2.78;1.00;;;24.80;47.60;;;;;;4970890;28;20486;-62
2022/05/06 12:04:04;;;;;;;3.33;0.82;;;25.00;45.60;;;;;;4969892;28;20058;-65
2022/05/06 12:06:35;;;;;;;3.00;0.90;;;25.10;49.00;;;;;;4970610;28;20015;-62
2022/05/06 12:09:10;;;;;;;1.45;1.10;;;25.30;46.90;;;;;;4971565;28;20093;-63
2022/05/06 12:11:41;;;;;;;2.38;0.80;;;25.10;43.10;;;;;;4969064;28;20082;-62
2022/05/06 12:14:09;;;;;;;1.20;0.90;;;24.80;44.00;;;;;;4970144;28;20551;-66
2022/05/06 12:16:35;;;;;;;2.28;1.00;;;24.80;46.70;;;;;;4970497;28;20054;-62
2022/05/06 12:19:00;;;;;;;1.00;0.80;;;25.10;47.70;;;;;;4970387;28;20105;-62
2022/05/06 12:21:28;;;;;;;1.50;0.90;;;25.30;47.50;;;;;;4970382;28;20022;-63
2022/05/06 12:23:55;;;;;;;2.97;1.10;;;25.20;45.80;;;;;;4970732;28;20027;-63
2022/05/06 12:26:30;;;;;;;1.42;0.98;;;25.00;46.30;;;;;;4970934;28;20023;-62
2022/05/06 12:28:57;;;;;;;2.67;1.35;;;25.00;46.10;;;;;;4969908;28;20125;-64
2022/05/06 12:31:31;;;;;;;1.92;1.20;;;24.90;45.70;;;;;;4952108;28;20031;-62
2022/05/06 12:34:04;;;;;;;3.10;1.05;;;24.70;46.10;;;;;;4969241;28;20027;-63
2022/05/06 12:36:30;;;;;;;2.92;1.00;;;24.60;47.00;;;;;;4970411;28;20027;-62
2022/05/06 12:38:55;;;;;;;1.40;1.10;;;24.30;47.20;;;;;;4970117;28;20105;-64
2022/05/06 12:41:35;;;;;;;5.28;1.25;;;24.20;46.80;;;;;;4970119;28;20431;-62
2022/05/06 12:44:15;;;;;;;5.43;1.33;;;24.10;46.90;;;;;;4968213;28;20027;-63
2022/05/06 12:46:41;;;;;;;3.88;1.30;;;23.90;46.60;;;;;;4970380;28;20031;-62
2022/05/06 12:51:51;;;;;;;1.52;0.90;;;23.50;46.60;;;;;;4970262;28;20513;-62
2022/05/06 12:54:16;;;;;;;1.02;0.85;;;23.80;48.40;;;;;;4968721;28;20042;-64
2022/05/06 12:56:42;;;;;;;1.33;0.90;;;23.90;47.30;;;;;;4970251;28;20445;-62
2022/05/06 12:59:08;;;;;;;0.70;0.70;;;23.70;46.20;;;;;;4970352;28;20027;-62
2022/05/06 13:01:34;;;;;;;0.80;0.80;;;23.60;47.50;;;;;;4969222;28;20058;-62
2022/05/06 13:04:00;;;;;;;1.30;1.05;;;23.50;50.00;;;;;;4968974;28;20035;-63
2022/05/06 13:06:29;;;;;;;3.05;1.15;;;23.60;48.60;;;;;;4969548;28;20027;-63
2022/05/06 13:08:55;;;;;;;4.47;1.08;;;23.60;45.60;;;;;;4970645;28;20544;-63
2022/05/06 13:11:20;;;;;;;1.92;0.90;;;23.30;45.00;;;;;;4969205;28;20026;-63
2022/05/06 13:13:46;;;;;;;1.25;1.10;;;23.20;45.60;;;;;;4969766;28;20063;-64
2022/05/06 13:16:12;;;;;;;2.58;0.93;;;23.40;49.60;;;;;;4970042;28;20482;-63
2022/05/06 13:18:39;;;;;;;1.40;1.02;;;23.70;48.10;;;;;;4968635;28;20027;-62
2022/05/06 13:21:04;;;;;;;4.40;1.10;;;23.50;46.40;;;;;;4970854;28;20019;-63
2022/05/06 13:23:30;;;;;;;2.53;1.00;;;23.40;48.50;;;;;;4968656;28;20038;-64
2022/05/06 13:25:56;;;;;;;2.08;1.30;;;23.60;47.60;;;;;;4969760;28;20073;-65
2022/05/06 13:28:22;;;;;;;3.13;1.05;;;23.30;48.10;;;;;;4969356;28;20039;-62
2022/05/06 13:30:47;;;;;;;1.33;1.10;;;23.00;45.60;;;;;;4969717;28;20031;-62